Spacing
UT2004 Stats Logo
ID Search: Date: Type:
Page [1/193] Selection: [First] / [Previous] / [Next] / [Last]
Unreal Tournament 2004 Match List
Match ID Date/Time Match Type Map Players Time
68985123 Sat, Jul 21 2018 at 11:31:57 AM Onslaught ONS-AnotherOpera-BetaC-6 5 9.9
68985114 Sat, Jul 21 2018 at 11:28:55 AM Freon FR-(00)_Paradox_B7 4 16.9
68985112 Sat, Jul 21 2018 at 11:28:01 AM {TR} Team Arena Master DM-Goliath 18 18.2
68985103 Sat, Jul 21 2018 at 11:22:20 AM Team Deathmatch DM-1on1-Roughinery 2 12.4
68985099 Sat, Jul 21 2018 at 11:21:45 AM Team ArenaMaster v3 DM-Campgrounds2004-G1E 4 20.6
68985095 Sat, Jul 21 2018 at 11:20:08 AM LDG Racing RACE-AztecScorpion[EMP][C] 9 25.6
68985087 Sat, Jul 21 2018 at 11:15:55 AM Team ArenaMaster v3.172 AT DM-{New}-Lego-Base 3 6.2
68985086 Sat, Jul 21 2018 at 11:15:48 AM Onslaught ONS-ABC-UCMP-C1 6 15.1
68985079 Sat, Jul 21 2018 at 11:13:52 AM Deathmatch DM-Berlin(DSM3) 4 28.9
68985072 Sat, Jul 21 2018 at 11:10:17 AM LDG Racing RACE-Scorp-Hop 4 8.4
68985071 Sat, Jul 21 2018 at 11:09:55 AM Freon FR-Q_Aerowalk_XL_B2 5 19.3
68985068 Sat, Jul 21 2018 at 11:09:16 AM Onslaught ONS-{UNK}-SNIPERPARADISE2- 2 27.6
68985065 Sat, Jul 21 2018 at 11:08:54 AM Onslaught ONS-Tricky 4 43.3
68985064 Sat, Jul 21 2018 at 11:08:28 AM Team Deathmatch DM-{GGMJ}_Q4-FLEISCHHAUS 2 15.4
68985060 Sat, Jul 21 2018 at 11:05:21 AM {TR} Team Arena Master DM-{TR}-Achilles-Night-T1 16 22.1
68985057 Sat, Jul 21 2018 at 11:03:56 AM Team ArenaMaster v3.172 AT DM-StalwartXL2003-TAM 5 11.5
68985055 Sat, Jul 21 2018 at 11:03:17 AM Onslaught ONS-DarkMarsh 2 6.1
68985010 Sat, Jul 21 2018 at 10:49:10 AM Vehicle CTF VCTF-BinarySpace][ 3 14.3
68985006 Sat, Jul 21 2018 at 10:47:27 AM LDG Racing RACE-BeTheRaisMaster[Knof] 6 22.6
68985005 Sat, Jul 21 2018 at 10:47:10 AM Freon FR-Rankin_[X]_B1 6 24.7
68985004 Sat, Jul 21 2018 at 10:46:57 AM Deathmatch DM-MPC-NIGHTMARE-ON-ELM-STREET 2 22.0
68985002 Sat, Jul 21 2018 at 10:46:30 AM Onslaught ONS-Ahebban-Summer-RMD-4 3 16.0
68985000 Sat, Jul 21 2018 at 10:45:17 AM Team ArenaMaster v3.172 AT DM-DE-Grendelkeep 3 18.9
68984998 Sat, Jul 21 2018 at 10:44:35 AM {TR} Team Arena Master DM-{TR}-Structured-T2 19 20.1
68984992 Sat, Jul 21 2018 at 10:42:29 AM Onslaught ONS-Twilight-SP2 3 15.8
68984987 Sat, Jul 21 2018 at 10:39:34 AM Team ArenaMaster v3.172 AT DM-{New}-Hillside 2 5.2
68984982 Sat, Jul 21 2018 at 10:37:13 AM LDG Assault AS-AmazingEggRaceWithEggs[F4][E2 4 9.1
68984971 Sat, Jul 21 2018 at 10:31:23 AM Onslaught ONS-Gunshop-C-SP5-test1e 3 9.5
68984966 Sat, Jul 21 2018 at 10:28:23 AM Onslaught ONS-FaceClassic-RMD-LowGravity-5 4 18.6
68984964 Sat, Jul 21 2018 at 10:27:44 AM Freon FR-Q_TheBouncyMap_B2 6 20.4
68984950 Sat, Jul 21 2018 at 10:21:29 AM {TR} Team Arena Master DM-Under_[X]_B5 14 23.3
68984949 Sat, Jul 21 2018 at 10:21:00 AM Onslaught ONS-Airport-RMD-3 5 6.8
68984939 Sat, Jul 21 2018 at 10:19:43 AM Team ArenaMaster v3.172 AT DM-{New}DogTown-V1 2 12.8
68984930 Sat, Jul 21 2018 at 10:14:30 AM LDG Racing RACE-despi 8 22.6
68984926 Sat, Jul 21 2018 at 10:13:08 AM Freon FR-[M]_Campgrounds_B1 2 14.5
68984922 Sat, Jul 21 2018 at 10:11:17 AM Team ArenaMaster v3 DM-{New}-Lego-Base 2 14.6
68984920 Sat, Jul 21 2018 at 10:10:15 AM Onslaught ONS-StorageFacility-]I[-C 8 20.6
68984919 Sat, Jul 21 2018 at 10:09:56 AM Team ArenaMaster v3.172 AT DM-{New}-Lego-Base-][ 2 9.7
68984910 Sat, Jul 21 2018 at 10:04:56 AM Onslaught ONS-CROSSFIRE 3 72.8
68984897 Sat, Jul 21 2018 at 9:59:12 AM Team ArenaMaster v3 DM-Crypt-of-f00k 2 11.8
68984893 Sat, Jul 21 2018 at 9:57:22 AM Onslaught ONS-Tanks-a-Lot-)o(-V5b 6 11.5
68984889 Sat, Jul 21 2018 at 9:55:02 AM {TR} Team Arena Master DM-{TR}-Rankin-T4 16 26.4
68984888 Sat, Jul 21 2018 at 9:54:55 AM Freon DM-UCMP3-Gantham 2 7.7
68984882 Sat, Jul 21 2018 at 9:52:29 AM LDG Racing RACE-DriftRace 7 21.8
68984875 Sat, Jul 21 2018 at 9:46:28 AM Freon DM-TrainingGael 2 7.1
68984867 Sat, Jul 21 2018 at 9:39:09 AM Onslaught ONS-ColaWars2142-RMD-1 8 44.7
68984861 Sat, Jul 21 2018 at 9:33:01 AM {TR} Team Arena Master DM-{TR}-Deck-17-T4 17 21.5
68984860 Sat, Jul 21 2018 at 9:33:00 AM LDG Racing RACE-BlazingArena-Track1[S][REV] 4 18.9
68984855 Sat, Jul 21 2018 at 9:29:48 AM Onslaught ONS-Spiffingrad-T32-Crusha-Beta2 6 27.5
68984853 Sat, Jul 21 2018 at 9:29:21 AM Onslaught ONS-GravCore2-RMD-4 5 9.4
68984850 Sat, Jul 21 2018 at 9:27:21 AM Trials AS--}@pple{-TrainingShoot-Trial- 2 28.4
68984845 Sat, Jul 21 2018 at 9:24:29 AM Freon DM-Deck17 8 22.9
68984844 Sat, Jul 21 2018 at 9:23:54 AM Trials AS-ShieldGunValor 2 3.3
68984836 Sat, Jul 21 2018 at 9:20:35 AM Trials AS-[Hr]Bluedeathv1-UT2XFix 2 2.8
68984834 Sat, Jul 21 2018 at 9:19:55 AM Team ArenaMaster v3 DM-1on1-Idoma 4 19.2
68984811 Sat, Jul 21 2018 at 9:18:04 AM LDG Assault AS-Industrial 4 14.2
68984807 Sat, Jul 21 2018 at 9:16:42 AM Onslaught ONS-Dreamus2SE-T32-C 7 11.7
68984797 Sat, Jul 21 2018 at 9:12:49 AM Onslaught ONS-ActionCity2-RMD-3 6 16.8
68984796 Sat, Jul 21 2018 at 9:11:49 AM {TR} Team Arena Master DM-{TR}-Aqua-Base 15 20.5
68984793 Sat, Jul 21 2018 at 9:11:31 AM Freon DM-Gael 7 12.1
68984782 Sat, Jul 21 2018 at 9:05:28 AM Trials AS-YourFirstTrial-V1 3 15.7
68984780 Sat, Jul 21 2018 at 9:04:41 AM LDG Assault AS-Insurrection-LE-v2 4 12.3
68984768 Sat, Jul 21 2018 at 8:58:43 AM Freon DM-Rankin 3 12.8
68984762 Sat, Jul 21 2018 at 8:55:45 AM InstaGib CTF CTF-LiandriField 3 5.4
68984761 Sat, Jul 21 2018 at 8:54:59 AM {TR} Team Arena Master DM-PipeWorks][-Night 19 15.8
68984759 Sat, Jul 21 2018 at 8:53:58 AM Onslaught ONS-TitanNecropolis-R5 5 10.2
68984758 Sat, Jul 21 2018 at 8:53:43 AM Vehicle Assault RACE-LevelerRace[Pharaoh] 3 55.5
68984750 Sat, Jul 21 2018 at 8:49:48 AM InstaGib Invasion DM-MountainTownPT 2 42.3
68984740 Sat, Jul 21 2018 at 8:46:47 AM LDG Assault AS-Overgrown-v3b-Night 5 16.4
68984739 Sat, Jul 21 2018 at 8:45:52 AM Onslaught ONS-2nd-Raceway-RMD-5 3 28.3
68984737 Sat, Jul 21 2018 at 8:45:17 AM Freon DM-PipeWorks][-Night 2 13.7
68984734 Sat, Jul 21 2018 at 8:42:33 AM Deathmatch DM-GoatswoodPlay 3 28.9
68984729 Sat, Jul 21 2018 at 8:39:42 AM Team ArenaMaster v3.172 AT DM-{New}-Lego-Cheops 5 17.4
68984707 Sat, Jul 21 2018 at 8:36:32 AM Onslaught ONS-IslandHop-C-beta5 6 16.5
68984706 Sat, Jul 21 2018 at 8:35:53 AM Onslaught ONS-ColaWars-RMD-4 2 10.4
68984700 Sat, Jul 21 2018 at 8:34:03 AM {TR} Team Arena Master DM-Remedy_[X]_B13 16 20.6
68984699 Sat, Jul 21 2018 at 8:33:48 AM LDG Assault AS-UCMP2-Cruciatus[F2] 2 13.3
68984688 Sat, Jul 21 2018 at 8:29:00 AM Team ArenaMaster v3.172 AT DM-{New}-StormGrounds 3 11.0
68984668 Sat, Jul 21 2018 at 8:18:44 AM Team ArenaMaster v3 DM-{New}-Lego-Base 2 7.9
68984660 Sat, Jul 21 2018 at 8:15:44 AM Team ArenaMaster v3.172 AT DM-{New}-Lego-Base 2 13.5
68984654 Sat, Jul 21 2018 at 8:13:33 AM Trials AS-Crystal-Temple-v1 3 45.3
68984651 Sat, Jul 21 2018 at 8:12:38 AM Freon DM-Rankin 2 10.2
68984650 Sat, Jul 21 2018 at 8:12:29 AM Vehicle CTF VCTF-TropopauseThrowdown 2 37.4
68984649 Sat, Jul 21 2018 at 8:11:53 AM LDG Racing RACE-ScorpionRace[Plasma][C] 2 22.6
68984648 Sat, Jul 21 2018 at 8:11:36 AM {TR} Team Arena Master DM-{TR}-Malevolence-T1 16 22.6
68984643 Sat, Jul 21 2018 at 8:09:40 AM Onslaught ONS-Airport-RMD-3 3 27.3
68984642 Sat, Jul 21 2018 at 8:09:30 AM Team ArenaMaster v3 DM-Rankin-FE 3 8.4
68984632 Sat, Jul 21 2018 at 8:04:51 AM Onslaught ONS-Maelstrom-NV 10 32.1
68984627 Sat, Jul 21 2018 at 8:02:38 AM Team ArenaMaster v3 DM-DE-Grendelkeep 3 6.1
68984611 Sat, Jul 21 2018 at 7:56:50 AM LDG Racing RACE-KidRace[C] 3 11.5
68984609 Sat, Jul 21 2018 at 7:55:00 AM Trials AS-]UT2K4[-UnrealTrialsV2 2 86.8
68984602 Sat, Jul 21 2018 at 7:51:49 AM {TR} Team Arena Master DM-{TR}-Under_LE-T5 16 19.9
68984594 Sat, Jul 21 2018 at 7:47:40 AM InstaGib CTF CTF-So-Random-LoL-RezQ-Rev 3 11.9
68984591 Sat, Jul 21 2018 at 7:45:04 AM Onslaught ONS-SpankJox-C 4 18.9
68984588 Sat, Jul 21 2018 at 7:44:04 AM LDG Ballistic Freon (Tracked, DM DM-Curse4 2 6.5
68984554 Sat, Jul 21 2018 at 7:34:34 AM Trials AS-WeaponsOfMassTrials 2 4.0
68984548 Sat, Jul 21 2018 at 7:30:30 AM {TR} Team Arena Master DM-{TR}-Campgrounds-T2 21 21.2
68984545 Sat, Jul 21 2018 at 7:29:04 AM LDG Racing RACE-BarrelRace 4 28.1
68984486 Sat, Jul 21 2018 at 7:09:22 AM Onslaught ONS-CROSSFIRE 2 109.3
68984477 Sat, Jul 21 2018 at 7:07:52 AM {TR} Team Arena Master DM-{TR}-The-Crypt-T5 22 22.9
Page [1/193] Selection: [First] / [Previous] / [Next] / [Last]